Time;durP1;ratioP1;P1;durP2;ratioP2;P2;SDS_P1;SDS_P2;PMS_P1;PMS_P2;Temp;Humidity;BMP_temperature;BMP_pressure;BME280_temperature;BME280_humidity;BME280_pressure;Samples;Min_cycle;Max_cycle;Signal;HPM_P1;HPM_P2
2022/07/16 04:00:34;;;;;;;3.75;1.50;;;9.30;96.30;;;;;;6147842;23;20747;31
2022/07/16 04:02:59;;;;;;;2.43;1.73;;;10.20;96.30;;;;;;4953471;29;20492;-75
2022/07/16 04:05:24;;;;;;;5.77;1.87;;;10.90;96.30;;;;;;4954278;29;20569;-77
2022/07/16 04:07:50;;;;;;;3.23;1.00;;;11.80;96.30;;;;;;4955311;29;20190;-75
2022/07/16 04:10:16;;;;;;;4.03;1.40;;;12.20;96.30;;;;;;4955776;29;20198;-75
2022/07/16 04:12:41;;;;;;;6.57;1.60;;;12.70;96.30;;;;;;4955705;29;20179;-75
2022/07/16 04:15:07;;;;;;;2.17;1.30;;;13.50;96.30;;;;;;4956351;29;20521;-78
2022/07/16 04:17:33;;;;;;;2.53;1.40;;;14.20;96.30;;;;;;4958846;28;20179;-79
2022/07/16 04:19:58;;;;;;;3.33;1.20;;;14.70;96.30;;;;;;4940112;29;20485;-79
2022/07/16 04:22:23;;;;;;;3.93;1.67;;;14.90;96.30;;;;;;4940034;29;20195;-79
2022/07/16 04:24:49;;;;;;;1.63;1.40;;;15.30;96.30;;;;;;4939389;29;20176;-79
2022/07/16 04:27:14;;;;;;;2.13;1.57;;;14.90;96.30;;;;;;4938802;29;20222;-79
2022/07/16 04:29:40;;;;;;;2.33;1.50;;;15.70;96.30;;;;;;4946046;29;20171;-80
2022/07/16 04:32:06;;;;;;;6.23;1.50;;;16.40;96.30;;;;;;4947843;29;20242;-80
2022/07/16 04:34:31;;;;;;;1.83;1.13;;;17.20;95.30;;;;;;4945056;29;20180;-80
2022/07/16 04:36:57;;;;;;;3.53;1.63;;;16.50;96.30;;;;;;4973895;28;20320;-79
2022/07/16 04:39:22;;;;;;;2.10;1.27;;;15.60;96.30;;;;;;4956717;29;20202;-79
2022/07/16 04:41:48;;;;;;;8.43;1.37;;;15.10;96.30;;;;;;4938978;29;20202;-79
2022/07/16 04:44:13;;;;;;;2.83;1.60;;;14.40;96.30;;;;;;4939245;29;20663;-79
2022/07/16 04:46:38;;;;;;;2.40;1.40;;;14.60;96.30;;;;;;4939209;29;20176;-79
2022/07/16 04:49:05;;;;;;;3.53;1.03;;;15.90;96.30;;;;;;4937126;29;20575;-79
2022/07/16 04:51:31;;;;;;;2.13;1.40;;;17.30;93.30;;;;;;4939821;29;20198;-79
2022/07/16 04:53:56;;;;;;;4.33;1.40;;;18.40;91.20;;;;;;4938812;29;20412;-78
2022/07/16 04:56:22;;;;;;;1.63;1.13;;;19.20;88.50;;;;;;4935797;29;20699;-76
2022/07/16 04:58:47;;;;;;;3.63;1.43;;;19.80;85.20;;;;;;4935213;29;20187;-76
2022/07/16 05:01:12;;;;;;;1.87;1.20;;;20.60;82.50;;;;;;4939593;29;20298;-80
2022/07/16 05:03:38;;;;;;;5.20;1.60;;;21.20;80.50;;;;;;4939937;29;20199;-80
2022/07/16 05:06:03;;;;;;;5.33;1.30;;;21.30;82.70;;;;;;4940111;29;20219;-80
2022/07/16 05:08:29;;;;;;;2.50;1.20;;;21.10;80.80;;;;;;4939265;29;20231;-80
2022/07/16 05:10:55;;;;;;;2.33;1.10;;;21.40;79.30;;;;;;4957435;29;20202;-80
2022/07/16 05:13:20;;;;;;;2.93;1.13;;;21.60;79.30;;;;;;4959026;29;20415;-80
2022/07/16 05:15:46;;;;;;;5.20;1.27;;;21.50;79.10;;;;;;4958865;29;20171;-80
2022/07/16 05:18:12;;;;;;;3.23;1.33;;;20.90;80.70;;;;;;4958154;29;20193;-79
2022/07/16 05:20:37;;;;;;;5.63;1.80;;;20.70;81.50;;;;;;4957135;28;20218;-80
2022/07/16 05:23:03;;;;;;;6.83;1.30;;;20.60;80.60;;;;;;4958153;29;20174;-80
2022/07/16 05:25:29;;;;;;;4.70;1.20;;;21.00;81.80;;;;;;4958741;28;20237;-80
2022/07/16 05:27:54;;;;;;;2.90;1.30;;;22.00;78.50;;;;;;4958737;28;20166;-80
2022/07/16 05:30:20;;;;;;;7.70;1.50;;;22.00;79.50;;;;;;4958697;28;20582;-80
2022/07/16 05:32:45;;;;;;;2.17;1.30;;;22.80;77.40;;;;;;4958847;28;20186;-80
2022/07/16 05:35:13;;;;;;;3.27;1.00;;;23.30;75.60;;;;;;4959344;28;20699;-80
2022/07/16 05:37:39;;;;;;;8.43;1.70;;;23.30;75.60;;;;;;4958595;28;20190;-79
2022/07/16 05:40:05;;;;;;;3.40;1.53;;;23.10;75.00;;;;;;4951565;28;20462;-80
2022/07/16 05:42:31;;;;;;;3.40;1.70;;;23.70;74.30;;;;;;4938475;29;20214;-80
2022/07/16 05:44:56;;;;;;;5.00;1.53;;;23.60;72.80;;;;;;4954512;29;20467;-80
2022/07/16 05:47:22;;;;;;;5.00;1.33;;;24.40;73.10;;;;;;4938743;29;20183;-81
2022/07/16 05:49:48;;;;;;;3.10;1.33;;;24.80;69.60;;;;;;4939183;29;20175;-80
2022/07/16 05:52:13;;;;;;;2.87;1.23;;;23.90;72.80;;;;;;4939165;29;20262;-80
2022/07/16 05:54:38;;;;;;;2.77;1.20;;;22.60;74.40;;;;;;4939262;29;20187;-80
2022/07/16 05:57:04;;;;;;;2.60;1.30;;;23.70;76.70;;;;;;4938151;29;20175;-80
2022/07/16 05:59:29;;;;;;;4.37;1.57;;;24.30;72.30;;;;;;4938237;29;20214;-80
2022/07/16 06:01:55;;;;;;;2.97;1.40;;;23.80;73.60;;;;;;4937377;29;20210;-80
2022/07/16 06:04:20;;;;;;;3.50;1.13;;;23.90;74.20;;;;;;4938873;29;20187;-80
2022/07/16 06:06:46;;;;;;;2.43;1.00;;;25.00;73.60;;;;;;4938992;29;20250;-80
2022/07/16 06:09:12;;;;;;;3.33;1.43;;;24.40;71.90;;;;;;4957264;28;20189;-80
2022/07/16 06:11:38;;;;;;;3.70;1.53;;;24.60;73.20;;;;;;4957896;28;20190;-80
2022/07/16 06:14:04;;;;;;;3.10;1.23;;;24.60;74.00;;;;;;4973140;28;20890;-80
2022/07/16 06:16:29;;;;;;;6.10;1.70;;;24.80;73.30;;;;;;4957739;28;20170;-80
2022/07/16 06:18:55;;;;;;;2.40;1.40;;;24.60;72.80;;;;;;4957875;28;20202;-80
2022/07/16 06:21:20;;;;;;;3.20;1.30;;;23.90;73.40;;;;;;4961106;28;20238;-80
2022/07/16 06:23:46;;;;;;;4.03;1.10;;;23.90;73.20;;;;;;4961627;28;20170;-80
2022/07/16 06:26:11;;;;;;;2.50;1.30;;;25.00;72.40;;;;;;4962292;29;20257;-80
2022/07/16 06:28:36;;;;;;;2.97;1.20;;;25.10;72.20;;;;;;4949367;29;20191;-80
2022/07/16 06:31:02;;;;;;;3.87;1.10;;;25.40;72.60;;;;;;4965672;28;20214;-80
2022/07/16 06:33:28;;;;;;;3.00;1.50;;;26.40;71.20;;;;;;4946169;28;20541;-81
2022/07/16 06:35:53;;;;;;;1.77;1.00;;;27.20;68.50;;;;;;4971426;28;20182;-81
2022/07/16 06:38:19;;;;;;;2.57;1.30;;;27.10;70.10;;;;;;4962322;28;20273;-80
2022/07/16 06:40:44;;;;;;;3.50;1.43;;;26.20;69.50;;;;;;4962839;28;20237;-79
2022/07/16 06:43:11;;;;;;;6.20;1.23;;;23.90;73.10;;;;;;4961626;29;20267;-79
2022/07/16 06:45:37;;;;;;;2.33;1.57;;;22.20;76.80;;;;;;4960867;28;20547;-79
2022/07/16 06:48:02;;;;;;;2.70;1.10;;;21.90;79.80;;;;;;4960016;28;20410;-79
2022/07/16 06:50:28;;;;;;;3.67;1.33;;;21.20;80.70;;;;;;4953752;28;20427;-78
2022/07/16 06:52:54;;;;;;;3.33;1.07;;;20.40;82.70;;;;;;4947357;29;20198;-80
2022/07/16 06:55:19;;;;;;;4.93;1.00;;;19.70;85.20;;;;;;4946929;28;20253;-76
2022/07/16 06:57:45;;;;;;;3.10;1.27;;;19.10;86.80;;;;;;4934404;29;20191;-75
2022/07/16 07:00:11;;;;;;;5.00;1.03;;;18.30;90.10;;;;;;4939472;29;20226;-78
2022/07/16 07:02:37;;;;;;;3.80;1.10;;;18.10;90.70;;;;;;4938249;29;20270;-78
2022/07/16 07:05:03;;;;;;;4.07;1.10;;;18.00;90.90;;;;;;4951768;28;20927;-77
2022/07/16 07:07:28;;;;;;;3.80;1.17;;;18.10;92.00;;;;;;4937709;29;20176;-78
2022/07/16 07:09:54;;;;;;;1.80;1.00;;;18.10;91.10;;;;;;4947805;29;20433;-78
2022/07/16 07:12:19;;;;;;;4.30;1.10;;;18.00;90.10;;;;;;4958347;29;20194;-79
2022/07/16 07:14:45;;;;;;;4.13;1.20;;;17.80;91.70;;;;;;4957204;29;20183;-77
2022/07/16 07:17:10;;;;;;;5.63;1.10;;;17.70;91.20;;;;;;4940362;29;20832;-77
2022/07/16 07:19:36;;;;;;;21.43;1.40;;;17.90;92.50;;;;;;4936310;29;20203;-78
2022/07/16 07:22:01;;;;;;;1.93;1.00;;;18.20;91.90;;;;;;4920581;29;20203;-78
2022/07/16 07:24:27;;;;;;;1.27;0.70;;;18.60;90.90;;;;;;4918427;29;20210;-78
2022/07/16 07:26:52;;;;;;;4.40;1.00;;;18.80;89.60;;;;;;4918872;29;20176;-78
2022/07/16 07:29:18;;;;;;;2.13;0.90;;;18.90;90.60;;;;;;4922506;29;20180;-78
2022/07/16 07:31:43;;;;;;;4.23;1.10;;;18.80;89.60;;;;;;4923478;29;20295;-78
2022/07/16 07:34:09;;;;;;;2.23;1.33;;;18.60;88.80;;;;;;4918611;29;20814;-78
2022/07/16 07:36:34;;;;;;;1.97;0.80;;;18.80;89.10;;;;;;4918261;29;20173;-78
2022/07/16 07:39:00;;;;;;;5.87;1.10;;;18.90;89.50;;;;;;4934076;29;20179;-78
2022/07/16 07:41:25;;;;;;;8.10;0.93;;;18.90;90.00;;;;;;4954299;29;20226;-79
2022/07/16 07:43:51;;;;;;;2.23;0.87;;;19.00;88.60;;;;;;4926716;29;20259;-79
2022/07/16 07:46:16;;;;;;;4.73;1.03;;;19.10;91.70;;;;;;4922371;29;20208;-78
2022/07/16 07:48:42;;;;;;;4.40;1.03;;;19.30;89.20;;;;;;4919579;29;20176;-75
2022/07/16 07:51:09;;;;;;;3.67;1.40;;;19.30;89.40;;;;;;4916876;29;20231;-74
2022/07/16 07:53:36;;;;;;;2.57;1.10;;;19.10;90.00;;;;;;4936469;29;20187;-77
2022/07/16 07:56:02;;;;;;;3.60;1.30;;;18.60;89.80;;;;;;4956317;28;20422;-75
2022/07/16 07:58:27;;;;;;;3.20;1.30;;;18.10;91.40;;;;;;4959192;28;20426;-75
2022/07/16 08:00:54;;;;;;;6.33;1.17;;;18.00;92.80;;;;;;4958586;28;20215;-79
2022/07/16 08:03:20;;;;;;;10.43;1.33;;;18.00;91.70;;;;;;4959522;28;20175;-79
2022/07/16 08:05:46;;;;;;;3.00;1.10;;;17.80;92.60;;;;;;4944871;29;20512;-79
2022/07/16 08:08:11;;;;;;;4.60;1.20;;;17.90;95.50;;;;;;4936814;29;20514;-78
2022/07/16 08:10:37;;;;;;;4.10;1.10;;;18.10;93.70;;;;;;4937142;29;20262;-79
2022/07/16 08:13:02;;;;;;;3.97;1.50;;;17.90;95.60;;;;;;4948774;29;20745;-78
2022/07/16 08:15:28;;;;;;;1.37;1.00;;;17.90;94.30;;;;;;4942322;28;20183;-79
2022/07/16 08:17:53;;;;;;;3.13;1.27;;;18.00;96.10;;;;;;4950570;28;20560;-78
2022/07/16 08:20:19;;;;;;;4.17;1.40;;;17.90;94.60;;;;;;4944129;29;20230;-78
2022/07/16 08:22:45;;;;;;;3.57;1.50;;;18.10;96.30;;;;;;4949757;28;20194;-78
2022/07/16 08:27:55;;;;;;;1.50;1.20;;;18.50;94.00;;;;;;4957924;28;20257;-76
2022/07/16 08:30:21;;;;;;;5.50;1.37;;;19.30;93.40;;;;;;4955258;29;20418;-77
2022/07/16 08:32:46;;;;;;;4.87;1.60;;;20.00;92.60;;;;;;4934449;29;20196;-76
2022/07/16 08:35:12;;;;;;;2.43;1.43;;;19.70;90.60;;;;;;4936096;29;20176;-76
2022/07/16 08:37:40;;;;;;;3.83;1.70;;;19.60;90.60;;;;;;4935913;29;20528;-76
2022/07/16 08:40:09;;;;;;;3.63;1.47;;;19.30;92.10;;;;;;4942899;29;20203;-75
2022/07/16 08:42:35;;;;;;;5.93;1.40;;;19.10;92.30;;;;;;4954917;28;20435;-75
2022/07/16 08:45:03;;;;;;;6.10;2.07;;;18.90;92.80;;;;;;4955081;28;20425;-75
2022/07/16 08:47:30;;;;;;;3.00;1.47;;;18.70;94.80;;;;;;4948759;28;20419;-75
2022/07/16 08:50:01;;;;;;;4.60;1.87;;;18.70;93.60;;;;;;4952185;28;20792;-75
2022/07/16 08:52:28;;;;;;;8.80;1.60;;;18.80;94.20;;;;;;4944224;28;20450;-80
2022/07/16 08:54:55;;;;;;;4.10;1.80;;;19.10;95.00;;;;;;4931211;29;20423;-75
2022/07/16 08:57:22;;;;;;;5.73;1.60;;;19.20;93.00;;;;;;4938196;29;20423;-75
2022/07/16 08:59:49;;;;;;;8.23;1.80;;;19.40;91.70;;;;;;4954454;28;20454;-74
2022/07/16 09:02:15;;;;;;;2.80;1.33;;;19.10;91.10;;;;;;4968133;28;20879;-76
2022/07/16 09:04:45;;;;;;;3.57;1.67;;;18.70;92.60;;;;;;4937638;29;20501;-76
2022/07/16 09:07:15;;;;;;;2.87;1.40;;;18.50;93.40;;;;;;4935251;29;20245;-74
2022/07/16 09:09:41;;;;;;;6.60;1.93;;;18.40;95.60;;;;;;4929422;29;20466;-74
2022/07/16 09:12:07;;;;;;;3.37;1.60;;;18.10;95.80;;;;;;4946323;28;20489;-74
2022/07/16 09:14:33;;;;;;;3.30;1.37;;;18.00;96.30;;;;;;4953162;29;20423;-74
2022/07/16 09:17:00;;;;;;;2.43;1.50;;;17.50;95.00;;;;;;4953303;28;20175;-74
2022/07/16 09:19:28;;;;;;;3.23;1.23;;;17.10;96.30;;;;;;4934866;29;20419;-77
2022/07/16 09:22:12;;;;;;;6.97;1.50;;;17.00;96.30;;;;;;4935562;29;20467;-75
2022/07/16 09:24:43;;;;;;;2.60;1.50;;;16.90;96.30;;;;;;4932958;29;20417;-77
2022/07/16 09:27:15;;;;;;;3.90;1.40;;;16.70;96.30;;;;;;4915733;29;20832;-75
2022/07/16 09:29:47;;;;;;;5.60;1.53;;;16.70;96.30;;;;;;4928529;29;20514;-78
2022/07/16 09:32:26;;;;;;;5.53;1.53;;;16.70;96.30;;;;;;4934339;29;20534;-77
2022/07/16 09:35:10;;;;;;;3.90;1.57;;;16.60;96.30;;;;;;4935176;29;20494;-80
2022/07/16 09:37:58;;;;;;;3.77;1.47;;;16.80;96.30;;;;;;4940875;29;20415;-80
2022/07/16 09:40:47;;;;;;;6.87;1.50;;;16.90;96.30;;;;;;4949711;29;20473;-80
2022/07/16 09:43:15;;;;;;;3.40;1.70;;;17.00;96.30;;;;;;4952359;28;20464;-81
2022/07/16 09:45:43;;;;;;;4.40;1.73;;;17.10;96.30;;;;;;4956239;29;20514;-80
2022/07/16 09:48:27;;;;;;;7.17;1.83;;;17.20;96.30;;;;;;4958095;28;20414;-79
2022/07/16 09:50:54;;;;;;;3.70;1.63;;;17.30;96.30;;;;;;4958080;28;20442;-79
2022/07/16 09:53:22;;;;;;;3.30;1.67;;;17.20;96.30;;;;;;4958338;28;20485;-79
2022/07/16 09:56:03;;;;;;;3.67;1.87;;;17.20;96.30;;;;;;4956729;28;20422;-81
2022/07/16 09:58:30;;;;;;;2.20;1.60;;;17.20;96.30;;;;;;4958156;28;20424;-79
2022/07/16 10:00:56;;;;;;;4.10;1.60;;;17.00;96.30;;;;;;4956257;29;20477;-81
2022/07/16 10:03:23;;;;;;;4.67;1.87;;;16.90;96.30;;;;;;4957886;28;20414;-81
2022/07/16 10:05:48;;;;;;;4.93;1.90;;;16.80;96.30;;;;;;4957749;28;20446;-81
2022/07/16 10:08:15;;;;;;;2.20;1.53;;;16.70;96.30;;;;;;4972359;28;20426;-80
2022/07/16 10:10:41;;;;;;;1.90;1.43;;;16.70;96.30;;;;;;4942004;28;20203;-81
2022/07/16 10:13:08;;;;;;;3.00;1.47;;;16.70;96.30;;;;;;4935719;29;20912;-82
2022/07/16 10:15:34;;;;;;;3.70;1.73;;;16.50;96.30;;;;;;4937055;29;20455;-77
2022/07/16 10:18:00;;;;;;;7.57;1.50;;;16.30;96.30;;;;;;4935356;29;20502;-80
2022/07/16 10:33:23;;;;;;;3.17;1.87;;;15.50;96.30;;;;;;5377979;23;20570;-81
2022/07/16 10:35:50;;;;;;;3.40;2.10;;;15.70;96.30;;;;;;4992590;28;20485;-79
2022/07/16 10:38:24;;;;;;;6.40;2.30;;;15.80;96.30;;;;;;4991041;28;20997;-78
2022/07/16 10:41:13;;;;;;;5.47;1.97;;;15.80;96.30;;;;;;5004606;28;20542;-78
2022/07/16 10:43:39;;;;;;;9.13;2.37;;;16.00;96.30;;;;;;5012112;28;20408;-78
2022/07/16 10:46:10;;;;;;;2.33;1.90;;;16.20;96.30;;;;;;5010828;28;20423;-78
2022/07/16 10:48:38;;;;;;;7.80;1.77;;;16.40;96.30;;;;;;5011978;28;20178;-78
2022/07/16 10:51:15;;;;;;;6.77;1.83;;;16.40;96.30;;;;;;5012124;28;20872;-78
2022/07/16 10:54:01;;;;;;;4.93;1.90;;;16.30;96.30;;;;;;5012326;28;20411;-78
2022/07/16 10:56:38;;;;;;;8.73;2.20;;;16.40;96.30;;;;;;5012416;28;20487;-80
2022/07/16 10:59:07;;;;;;;6.43;2.77;;;16.40;96.30;;;;;;5012410;28;20419;-77
2022/07/16 11:01:34;;;;;;;5.63;2.00;;;16.60;96.30;;;;;;5012197;28;20700;-77
2022/07/16 11:04:02;;;;;;;3.83;2.00;;;16.70;96.30;;;;;;5011224;28;20416;-77
2022/07/16 11:06:28;;;;;;;3.20;1.93;;;16.60;96.30;;;;;;5014215;28;20470;-77
2022/07/16 11:08:58;;;;;;;3.17;1.70;;;16.40;96.30;;;;;;5015829;28;20958;-77
2022/07/16 11:11:39;;;;;;;3.70;1.90;;;16.10;96.30;;;;;;5014983;28;20444;-76
2022/07/16 11:14:06;;;;;;;3.67;1.60;;;16.10;96.30;;;;;;5016328;28;20473;-77
2022/07/16 11:16:32;;;;;;;5.50;1.90;;;16.20;96.30;;;;;;5016313;28;20428;-77
2022/07/16 11:19:02;;;;;;;3.30;2.17;;;16.40;96.30;;;;;;5016027;28;20450;-77
2022/07/16 11:21:28;;;;;;;5.07;1.73;;;16.60;96.30;;;;;;5015858;28;20564;-77
2022/07/16 11:24:00;;;;;;;5.90;1.67;;;16.70;96.30;;;;;;5014859;28;20463;-77
2022/07/16 11:26:27;;;;;;;3.63;1.80;;;16.20;96.30;;;;;;5015998;28;20412;-76
2022/07/16 11:28:53;;;;;;;3.00;2.20;;;16.10;96.30;;;;;;5015814;28;20420;-77
2022/07/16 11:31:33;;;;;;;3.87;1.63;;;15.80;96.30;;;;;;5014190;28;21020;-76
2022/07/16 11:34:08;;;;;;;6.17;2.17;;;15.70;96.30;;;;;;5015186;28;20447;-77
2022/07/16 11:36:37;;;;;;;7.43;2.50;;;15.80;96.30;;;;;;5014392;28;20423;-76
2022/07/16 11:39:04;;;;;;;7.00;2.47;;;15.80;96.30;;;;;;5015225;28;20917;-77
2022/07/16 11:41:35;;;;;;;2.80;1.57;;;16.10;96.30;;;;;;4997270;28;20526;-76
2022/07/16 11:44:08;;;;;;;4.23;2.00;;;16.60;96.30;;;;;;4995303;28;20417;-77
2022/07/16 11:46:40;;;;;;;7.80;2.30;;;17.30;96.30;;;;;;4994892;28;20405;-77
2022/07/16 11:49:05;;;;;;;4.10;2.23;;;17.60;96.30;;;;;;4994790;28;20420;-77
2022/07/16 11:51:31;;;;;;;3.40;2.10;;;17.70;96.30;;;;;;4990654;28;20515;-75
2022/07/16 11:53:56;;;;;;;5.63;2.00;;;17.60;96.30;;;;;;4981094;28;20665;-75
2022/07/16 11:56:41;;;;;;;7.03;2.43;;;18.00;96.30;;;;;;5004875;28;20180;-75
2022/07/16 11:59:26;;;;;;;7.03;2.57;;;19.20;96.30;;;;;;5011177;28;20583;-75
2022/07/16 12:02:06;;;;;;;3.30;1.70;;;20.40;96.30;;;;;;4993074;28;20547;-78
2022/07/16 12:04:43;;;;;;;3.70;1.77;;;20.90;96.30;;;;;;4994440;28;20417;-75
2022/07/16 12:07:15;;;;;;;2.80;1.87;;;20.00;96.30;;;;;;4986062;28;20661;-78
2022/07/16 12:09:45;;;;;;;1.97;1.30;;;19.80;96.30;;;;;;5008215;28;20405;-78
2022/07/16 12:12:14;;;;;;;1.30;1.10;;;19.50;96.30;;;;;;4994786;28;20433;-78
2022/07/16 12:14:55;;;;;;;6.60;2.03;;;19.20;96.30;;;;;;4997141;28;20412;-78
2022/07/16 12:17:28;;;;;;;7.90;1.97;;;19.60;96.30;;;;;;4996783;28;20471;-78
2022/07/16 12:20:04;;;;;;;1.27;1.10;;;20.10;96.30;;;;;;5002544;28;20440;-78
2022/07/16 12:22:53;;;;;;;4.70;1.80;;;20.30;96.30;;;;;;5003727;28;20767;-80
2022/07/16 12:25:39;;;;;;;2.90;1.43;;;19.70;96.30;;;;;;4982393;28;20410;-80
2022/07/16 12:28:06;;;;;;;2.70;1.63;;;19.30;96.30;;;;;;4977897;28;20425;-81
2022/07/16 12:30:49;;;;;;;4.00;1.30;;;19.90;96.30;;;;;;4979180;28;20426;-80
2022/07/16 12:33:15;;;;;;;5.03;1.27;;;20.30;96.30;;;;;;4978205;28;20437;-81
2022/07/16 12:36:05;;;;;;;2.77;1.03;;;20.70;96.30;;;;;;4978963;28;20453;-81
2022/07/16 12:38:58;;;;;;;2.30;1.43;;;21.30;96.30;;;;;;4977526;28;20258;-80
2022/07/16 12:41:34;;;;;;;5.47;1.50;;;21.90;96.30;;;;;;5012777;28;20463;-81
2022/07/16 12:44:05;;;;;;;5.00;1.50;;;21.60;96.30;;;;;;5017008;28;20412;-82
2022/07/16 12:46:40;;;;;;;6.60;1.37;;;21.00;95.20;;;;;;4997020;28;20425;-81
2022/07/16 12:49:11;;;;;;;2.40;1.10;;;20.00;96.30;;;;;;4988523;28;20410;-80
2022/07/16 12:51:39;;;;;;;3.10;1.00;;;19.90;95.80;;;;;;5000619;28;20620;-79
2022/07/16 12:54:07;;;;;;;3.77;1.23;;;19.50;96.30;;;;;;5018205;28;20427;-80
2022/07/16 12:59:18;;;;;;;1.13;0.90;;;19.10;96.30;;;;;;5016469;28;20469;-79
2022/07/16 13:01:45;;;;;;;1.53;0.97;;;19.40;96.30;;;;;;5017248;28;20493;-80
2022/07/16 13:04:11;;;;;;;1.30;1.10;;;19.70;96.30;;;;;;5017198;28;20412;-81
2022/07/16 13:06:37;;;;;;;1.63;0.80;;;19.70;96.30;;;;;;5016263;28;20443;-80
2022/07/16 13:09:04;;;;;;;9.73;1.10;;;20.30;96.30;;;;;;5017717;28;20416;-80
2022/07/16 13:11:30;;;;;;;3.40;0.90;;;20.50;96.10;;;;;;5017644;28;20439;-80
2022/07/16 13:13:56;;;;;;;2.30;0.90;;;20.10;95.80;;;;;;5017803;28;20411;-79
2022/07/16 13:16:22;;;;;;;1.00;0.90;;;20.70;96.30;;;;;;5017926;28;20185;-80
2022/07/16 13:18:50;;;;;;;2.90;0.97;;;20.50;94.10;;;;;;5017476;28;20172;-80
2022/07/16 13:21:16;;;;;;;1.20;0.97;;;19.80;96.30;;;;;;5016891;28;20517;-80
2022/07/16 13:23:42;;;;;;;1.20;0.90;;;19.30;96.30;;;;;;5016641;28;20416;-80
2022/07/16 13:26:09;;;;;;;1.30;0.87;;;19.40;96.30;;;;;;5018127;28;20416;-79
2022/07/16 13:28:35;;;;;;;5.57;1.20;;;19.90;96.30;;;;;;5014983;28;20235;-80
2022/07/16 13:31:01;;;;;;;1.10;0.70;;;20.30;96.30;;;;;;5016598;28;20779;-79
2022/07/16 13:33:26;;;;;;;3.53;0.90;;;20.10;92.50;;;;;;5016886;28;20474;-79
2022/07/16 13:35:53;;;;;;;1.10;0.80;;;20.20;94.90;;;;;;5017678;28;20208;-80
2022/07/16 13:38:19;;;;;;;1.37;0.90;;;21.00;92.50;;;;;;5016894;28;20176;-79
2022/07/16 13:40:45;;;;;;;6.60;0.80;;;21.50;90.90;;;;;;5006195;28;20456;-80
2022/07/16 13:43:11;;;;;;;1.53;0.80;;;22.20;87.70;;;;;;4997927;28;20420;-80
2022/07/16 13:45:38;;;;;;;1.63;0.70;;;22.30;86.00;;;;;;4997906;28;20169;-80
2022/07/16 13:48:04;;;;;;;4.93;1.53;;;21.60;85.50;;;;;;4997661;28;20412;-79
2022/07/16 13:50:30;;;;;;;2.10;0.90;;;21.80;86.60;;;;;;4997425;28;20495;-79
2022/07/16 13:52:56;;;;;;;1.00;0.77;;;22.10;88.10;;;;;;4997691;28;20448;-80
2022/07/16 13:55:22;;;;;;;2.23;0.80;;;22.50;83.90;;;;;;4998076;28;20170;-80
2022/07/16 14:00:32;;;;;;;4.60;0.90;;;22.30;85.30;;;;;;4997834;28;20224;-79
2022/07/16 14:02:57;;;;;;;3.20;1.27;;;22.70;85.80;;;;;;4997980;28;20409;-79
2022/07/16 14:05:23;;;;;;;1.43;0.80;;;22.70;82.80;;;;;;4997596;28;20252;-80
2022/07/16 14:07:48;;;;;;;9.00;0.93;;;22.60;79.00;;;;;;4997173;28;20169;-80
2022/07/16 14:10:15;;;;;;;3.83;0.90;;;22.30;79.60;;;;;;5026424;28;20212;-79
2022/07/16 14:12:42;;;;;;;1.47;0.93;;;22.60;79.60;;;;;;5017511;28;20200;-80
2022/07/16 14:15:09;;;;;;;4.00;1.47;;;22.70;78.30;;;;;;5017660;28;20904;-79
2022/07/16 14:17:36;;;;;;;1.67;0.97;;;22.00;77.80;;;;;;5017827;28;20403;-80
2022/07/16 14:20:03;;;;;;;1.70;1.10;;;22.40;82.30;;;;;;5018189;28;20870;-79
2022/07/16 14:22:28;;;;;;;2.10;0.87;;;22.20;78.50;;;;;;5017229;28;20912;-79
2022/07/16 14:24:54;;;;;;;4.03;1.00;;;22.00;78.60;;;;;;5017717;28;20416;-79
2022/07/16 14:27:19;;;;;;;6.23;1.17;;;21.10;79.90;;;;;;5018512;28;20228;-79
2022/07/16 14:29:45;;;;;;;1.60;0.90;;;21.80;82.30;;;;;;5017888;28;20173;-79
2022/07/16 14:32:10;;;;;;;1.43;0.83;;;22.50;80.60;;;;;;5018193;28;20239;-79
2022/07/16 14:34:35;;;;;;;2.40;0.97;;;23.20;78.90;;;;;;5018126;28;20180;-80
2022/07/16 14:37:01;;;;;;;2.53;0.90;;;22.20;78.80;;;;;;5017991;28;20223;-80
2022/07/16 14:39:27;;;;;;;2.30;1.50;;;22.10;79.00;;;;;;5016139;28;20185;-79
2022/07/16 14:41:52;;;;;;;1.20;0.90;;;21.90;80.40;;;;;;5001303;28;20196;-79
2022/07/16 14:44:18;;;;;;;1.93;0.97;;;22.40;78.60;;;;;;5002814;28;20170;-79
2022/07/16 14:46:43;;;;;;;2.00;1.17;;;22.60;76.50;;;;;;5017019;28;20181;-79
2022/07/16 14:49:09;;;;;;;2.50;0.90;;;22.60;79.00;;;;;;5001284;28;20661;-76
2022/07/16 14:51:34;;;;;;;1.53;0.90;;;22.60;79.40;;;;;;4995812;28;20200;-76
2022/07/16 14:54:00;;;;;;;1.50;0.90;;;22.60;76.60;;;;;;4995868;28;20174;-76
2022/07/16 14:56:25;;;;;;;2.97;1.10;;;22.30;78.40;;;;;;5010873;28;20177;-76
2022/07/16 14:58:51;;;;;;;3.60;1.33;;;22.60;79.40;;;;;;4995670;28;20542;-78
2022/07/16 15:01:16;;;;;;;3.13;0.97;;;22.60;79.00;;;;;;5000413;28;20271;-81
2022/07/16 15:03:42;;;;;;;5.10;0.90;;;22.20;77.50;;;;;;5002080;28;20166;-79
2022/07/16 15:06:07;;;;;;;1.40;1.10;;;22.50;77.00;;;;;;5002632;28;20169;-79
2022/07/16 15:08:33;;;;;;;1.63;0.90;;;22.90;79.60;;;;;;5002203;28;20248;-80
2022/07/16 15:10:58;;;;;;;1.43;0.90;;;22.40;77.60;;;;;;5021127;28;20619;-80
2022/07/16 15:13:24;;;;;;;1.07;0.80;;;21.70;79.00;;;;;;5020427;28;20177;-80
2022/07/16 15:15:49;;;;;;;1.30;1.00;;;21.30;79.50;;;;;;5021268;28;20184;-79
2022/07/16 15:18:15;;;;;;;3.37;1.20;;;20.70;82.40;;;;;;4992877;28;20182;-79
2022/07/16 15:20:40;;;;;;;3.83;1.10;;;20.00;83.20;;;;;;4980928;28;20213;-79
2022/07/16 15:23:06;;;;;;;2.20;1.00;;;20.00;85.30;;;;;;4994002;28;20550;-79
2022/07/16 15:25:32;;;;;;;1.77;1.10;;;20.50;85.80;;;;;;4997355;28;20185;-79
2022/07/16 15:27:57;;;;;;;2.33;1.30;;;20.90;82.80;;;;;;4998874;28;20248;-79
2022/07/16 15:30:23;;;;;;;2.10;1.10;;;21.20;82.30;;;;;;4999421;28;20955;-80
2022/07/16 15:32:48;;;;;;;11.30;1.07;;;21.30;82.30;;;;;;4996304;28;20202;-79
2022/07/16 15:35:14;;;;;;;5.90;0.97;;;21.40;81.70;;;;;;4996966;28;20177;-78
2022/07/16 15:37:40;;;;;;;2.47;1.00;;;21.30;80.30;;;;;;4996906;28;20209;-79
2022/07/16 15:40:07;;;;;;;2.27;1.13;;;21.20;80.50;;;;;;5004044;28;20209;-78
2022/07/16 15:42:32;;;;;;;2.40;0.90;;;21.10;80.90;;;;;;5017224;28;20280;-79
2022/07/16 15:44:58;;;;;;;4.03;1.03;;;21.50;82.40;;;;;;5018489;28;20435;-79
2022/07/16 15:47:23;;;;;;;6.67;1.00;;;21.60;80.20;;;;;;5017731;28;20169;-79
2022/07/16 15:49:49;;;;;;;2.27;1.13;;;21.80;79.00;;;;;;5008578;28;20197;-80
2022/07/16 15:52:15;;;;;;;1.73;1.10;;;21.80;78.50;;;;;;4999826;28;20202;-81
2022/07/16 15:54:40;;;;;;;3.83;0.90;;;21.60;78.20;;;;;;5005690;28;20189;-79
2022/07/16 15:57:09;;;;;;;2.03;0.90;;;21.50;79.20;;;;;;5001469;28;20195;-79
2022/07/16 15:59:39;;;;;;;1.40;0.93;;;21.60;79.20;;;;;;5015641;28;20192;-80
2022/07/16 16:02:04;;;;;;;3.33;1.17;;;21.70;78.00;;;;;;5004591;28;20468;-80
2022/07/16 16:04:31;;;;;;;1.33;0.90;;;21.80;78.20;;;;;;4995506;28;20460;-80
2022/07/16 16:06:58;;;;;;;3.07;0.80;;;21.90;78.40;;;;;;4997404;28;20405;-80
2022/07/16 16:09:25;;;;;;;3.10;1.20;;;21.60;77.80;;;;;;4997657;28;20440;-79
2022/07/16 16:11:51;;;;;;;1.00;0.70;;;21.60;78.30;;;;;;5017192;28;20443;-83
2022/07/16 16:14:17;;;;;;;2.83;0.90;;;21.70;77.80;;;;;;5029372;22;20531;-66
2022/07/16 16:16:43;;;;;;;1.60;1.00;;;21.70;78.40;;;;;;5010789;28;20440;-66
2022/07/16 16:19:08;;;;;;;7.43;1.10;;;21.70;76.30;;;;;;5007804;28;20451;-66
2022/07/16 16:21:34;;;;;;;3.77;1.03;;;21.30;77.00;;;;;;5007308;28;20201;-66
2022/07/16 16:24:00;;;;;;;2.93;0.90;;;21.40;77.90;;;;;;4978723;28;20277;-66
2022/07/16 16:26:26;;;;;;;1.93;0.80;;;21.50;77.50;;;;;;4975099;28;20183;-66
2022/07/16 16:28:52;;;;;;;5.10;1.40;;;21.40;78.50;;;;;;4984729;28;20173;-66
2022/07/16 16:31:18;;;;;;;2.50;1.03;;;21.60;79.70;;;;;;4988905;28;20790;-66
2022/07/16 16:33:43;;;;;;;1.37;0.80;;;21.80;77.80;;;;;;4993362;28;20208;-66
2022/07/16 16:36:09;;;;;;;2.13;0.97;;;21.90;78.40;;;;;;4993930;28;20202;-66
2022/07/16 16:38:34;;;;;;;2.50;1.10;;;21.90;77.40;;;;;;4992863;28;20509;-66
2022/07/16 16:40:59;;;;;;;2.07;0.90;;;22.00;78.00;;;;;;4978962;28;20194;-66
2022/07/16 16:43:25;;;;;;;2.30;1.17;;;21.40;78.20;;;;;;4974345;28;20206;-66
2022/07/16 16:45:50;;;;;;;1.70;1.00;;;21.00;79.30;;;;;;4974148;28;20250;-66
2022/07/16 16:48:16;;;;;;;2.77;1.00;;;20.80;79.50;;;;;;4987800;28;20636;-66
2022/07/16 16:50:41;;;;;;;3.37;1.07;;;20.80;79.90;;;;;;4993408;28;20264;-66
2022/07/16 16:53:07;;;;;;;3.43;1.23;;;20.70;79.30;;;;;;4993449;28;20197;-66
2022/07/16 16:55:34;;;;;;;2.80;1.00;;;20.50;79.90;;;;;;4993575;28;20232;-66
2022/07/16 16:58:00;;;;;;;1.67;1.00;;;20.30;81.30;;;;;;4993422;28;20202;-66
2022/07/16 17:00:25;;;;;;;7.73;1.20;;;20.10;80.50;;;;;;4993162;28;20491;-66
2022/07/16 17:02:52;;;;;;;2.30;1.23;;;20.00;81.50;;;;;;4976398;28;20281;-82
2022/07/16 17:05:18;;;;;;;3.17;1.10;;;19.90;82.00;;;;;;4977065;28;20634;-82
2022/07/16 17:07:43;;;;;;;5.23;0.90;;;19.90;82.30;;;;;;4974933;28;20501;-82
2022/07/16 17:10:10;;;;;;;2.60;1.13;;;19.90;82.40;;;;;;4975540;28;20174;-81